createdAt,value
2017-09-18T00:00:30.376Z,1013.59
2017-09-18T00:01:39.218Z,1013.58
2017-09-18T00:02:48.060Z,1013.54
2017-09-18T00:03:56.899Z,1013.58
2017-09-18T00:05:05.741Z,1013.54
2017-09-18T00:06:14.734Z,1013.56
2017-09-18T00:07:23.906Z,1013.56
2017-09-18T00:08:33.086Z,1013.55
2017-09-18T00:09:42.262Z,1013.55
2017-09-18T00:10:51.104Z,1013.58
2017-09-18T00:12:00.096Z,1013.56
2017-09-18T00:13:08.940Z,1013.52
2017-09-18T00:14:17.779Z,1013.52
2017-09-18T00:15:26.622Z,1013.55
2017-09-18T00:16:35.461Z,1013.54
2017-09-18T00:17:44.354Z,1013.51
2017-09-18T00:18:53.193Z,1013.54
2017-09-18T00:20:02.039Z,1013.52
2017-09-18T00:21:10.883Z,1013.52
2017-09-18T00:22:19.722Z,1013.47
2017-09-18T00:23:29.099Z,1013.47
2017-09-18T00:24:37.938Z,1013.43
2017-09-18T00:25:47.110Z,1013.43
2017-09-18T00:26:55.952Z,1013.5
2017-09-18T00:28:04.794Z,1013.46
2017-09-18T00:29:13.788Z,1013.46
2017-09-18T00:30:22.630Z,1013.46
2017-09-18T00:31:31.474Z,1013.43
2017-09-18T00:32:40.316Z,1013.43
2017-09-18T00:33:49.160Z,1013.49
2017-09-18T00:34:58.102Z,1013.45
2017-09-18T00:36:06.944Z,1013.48
2017-09-18T00:37:15.787Z,1013.45
2017-09-18T00:38:24.630Z,1013.45
2017-09-18T00:39:33.472Z,1013.45
2017-09-18T00:40:42.472Z,1013.46
2017-09-18T00:41:51.312Z,1013.45
2017-09-18T00:43:00.156Z,1013.48
2017-09-18T00:44:08.996Z,1013.49
2017-09-18T00:45:17.837Z,1013.48
2017-09-18T00:46:26.724Z,1013.5
2017-09-18T00:47:35.564Z,1013.49
2017-09-18T00:48:44.407Z,1013.5
2017-09-18T00:49:53.246Z,1013.51
2017-09-18T00:51:02.087Z,1013.54
2017-09-18T00:52:11.077Z,1013.52
2017-09-18T00:53:19.917Z,1013.56
2017-09-18T00:54:28.757Z,1013.56
2017-09-18T00:55:37.928Z,1013.53
2017-09-18T00:56:46.769Z,1013.59
2017-09-18T00:57:55.661Z,1013.57
2017-09-18T00:59:04.503Z,1013.54
2017-09-18T01:00:13.345Z,1013.57
2017-09-18T01:01:22.186Z,1013.59
2017-09-18T01:02:31.024Z,1013.53
2017-09-18T01:03:40.012Z,1013.54
2017-09-18T01:04:48.854Z,1013.53
2017-09-18T01:05:57.699Z,1013.5
2017-09-18T01:07:06.541Z,1013.5
2017-09-18T01:08:15.717Z,1013.45
2017-09-18T01:09:24.857Z,1013.46
2017-09-18T01:10:33.702Z,1013.48
2017-09-18T01:11:42.542Z,1013.44
2017-09-18T01:12:51.716Z,1013.45
2017-09-18T01:14:00.891Z,1013.46
2017-09-18T01:15:09.885Z,1013.5
2017-09-18T01:16:18.723Z,1013.49
2017-09-18T01:17:27.565Z,1013.51
2017-09-18T01:18:36.406Z,1013.54
2017-09-18T01:19:45.247Z,1013.49
2017-09-18T01:20:54.240Z,1013.52
2017-09-18T01:22:03.078Z,1013.45
2017-09-18T01:23:12.257Z,1013.47
2017-09-18T01:24:21.098Z,1013.44
2017-09-18T01:25:29.940Z,1013.47
2017-09-18T01:26:39.077Z,1013.5
2017-09-18T01:27:47.919Z,1013.45
2017-09-18T01:28:56.758Z,1013.42
2017-09-18T01:30:05.600Z,1013.43
2017-09-18T01:31:14.441Z,1013.47
2017-09-18T01:32:23.331Z,1013.41
2017-09-18T01:33:32.174Z,1013.37
2017-09-18T01:34:41.011Z,1013.37
2017-09-18T01:35:49.851Z,1013.41
2017-09-18T01:36:58.692Z,1013.36
2017-09-18T01:38:07.684Z,1013.32
2017-09-18T01:39:16.528Z,1013.35
2017-09-18T01:40:25.374Z,1013.37
2017-09-18T01:41:34.207Z,1013.41
2017-09-18T01:42:43.050Z,1013.37
2017-09-18T01:43:52.042Z,1013.38
2017-09-18T01:45:00.882Z,1013.33
2017-09-18T01:46:09.723Z,1013.36
2017-09-18T01:47:18.565Z,1013.33
2017-09-18T01:48:27.405Z,1013.35
2017-09-18T01:49:36.746Z,1013.32
2017-09-18T01:50:45.594Z,1013.31
2017-09-18T01:51:55.097Z,1013.32
2017-09-18T01:53:03.940Z,1013.31
2017-09-18T01:54:12.778Z,1013.32
2017-09-18T01:55:21.765Z,1013.29
2017-09-18T01:56:30.941Z,1013.3
2017-09-18T01:57:39.783Z,1013.28
2017-09-18T01:58:48.622Z,1013.29
2017-09-18T01:59:57.464Z,1013.26
2017-09-18T02:01:06.306Z,1013.29
2017-09-18T02:02:15.145Z,1013.25
2017-09-18T02:03:23.984Z,1013.24
2017-09-18T02:04:32.823Z,1013.22
2017-09-18T02:05:41.665Z,1013.23
2017-09-18T02:06:50.656Z,1013.22
2017-09-18T02:07:59.496Z,1013.27
2017-09-18T02:09:08.337Z,1013.25
2017-09-18T02:10:17.510Z,1013.25
2017-09-18T02:11:26.352Z,1013.25
2017-09-18T02:12:35.438Z,1013.24
2017-09-18T02:13:44.615Z,1013.21
2017-09-18T02:14:53.456Z,1013.23
2017-09-18T02:16:02.295Z,1013.19
2017-09-18T02:17:11.135Z,1013.14
2017-09-18T02:18:20.127Z,1013.14
2017-09-18T02:19:28.964Z,1013.19
2017-09-18T02:20:37.799Z,1013.22
2017-09-18T02:21:46.971Z,1013.18
2017-09-18T02:22:55.809Z,1013.19
2017-09-18T02:24:05.034Z,1013.19
2017-09-18T02:25:13.873Z,1013.2
2017-09-18T02:26:22.712Z,1013.22
2017-09-18T02:27:31.549Z,1013.22
2017-09-18T02:28:40.725Z,1013.22
2017-09-18T02:29:49.864Z,1013.24
2017-09-18T02:30:58.707Z,1013.26
2017-09-18T02:32:07.548Z,1013.28
2017-09-18T02:33:16.391Z,1013.32
2017-09-18T02:34:25.230Z,1013.3
2017-09-18T02:35:34.169Z,1013.33
2017-09-18T02:36:43.019Z,1013.31
2017-09-18T02:37:51.857Z,1013.33
2017-09-18T02:39:00.695Z,1013.3
2017-09-18T02:40:09.531Z,1013.32
2017-09-18T02:41:18.372Z,1013.32
2017-09-18T02:42:27.214Z,1013.34
2017-09-18T02:43:36.050Z,1013.34
2017-09-18T02:44:44.889Z,1013.34
2017-09-18T02:45:53.729Z,1013.35
2017-09-18T02:47:02.617Z,1013.37
2017-09-18T02:48:11.459Z,1013.39
2017-09-18T02:49:20.299Z,1013.4
2017-09-18T02:50:29.140Z,1013.37
2017-09-18T02:51:37.980Z,1013.41
2017-09-18T02:52:46.968Z,1013.41
2017-09-18T02:53:55.809Z,1013.39
2017-09-18T02:55:04.650Z,1013.41
2017-09-18T02:56:13.490Z,1013.38
2017-09-18T02:57:22.333Z,1013.39
2017-09-18T02:58:31.169Z,1013.42
2017-09-18T02:59:40.007Z,1013.46
2017-09-18T03:00:48.847Z,1013.41
2017-09-18T03:01:58.022Z,1013.38
2017-09-18T03:03:06.860Z,1013.42
2017-09-18T03:04:15.849Z,1013.42
2017-09-18T03:05:24.692Z,1013.42
2017-09-18T03:06:33.531Z,1013.43
2017-09-18T03:07:42.372Z,1013.44
2017-09-18T03:08:51.214Z,1013.45
2017-09-18T03:10:00.057Z,1013.44
2017-09-18T03:11:08.898Z,1013.46
2017-09-18T03:12:17.737Z,1013.48
2017-09-18T03:13:26.579Z,1013.46
2017-09-18T03:14:35.415Z,1013.41
2017-09-18T03:15:44.307Z,1013.42
2017-09-18T03:16:53.483Z,1013.37
2017-09-18T03:18:02.654Z,1013.37
2017-09-18T03:19:11.494Z,1013.38
2017-09-18T03:20:20.331Z,1013.41
2017-09-18T03:21:29.176Z,1013.35
2017-09-18T03:22:38.015Z,1013.35
2017-09-18T03:23:46.854Z,1013.38
2017-09-18T03:24:55.695Z,1013.32
2017-09-18T03:26:04.869Z,1013.35
2017-09-18T03:27:14.008Z,1013.36
2017-09-18T03:28:22.846Z,1013.31
2017-09-18T03:29:31.687Z,1013.33
2017-09-18T03:30:40.865Z,1013.32
2017-09-18T03:31:50.028Z,1013.37
2017-09-18T03:32:59.019Z,1013.36
2017-09-18T03:34:07.863Z,1013.36
2017-09-18T03:35:16.704Z,1013.37
2017-09-18T03:36:25.542Z,1013.34
2017-09-18T03:37:34.384Z,1013.33
2017-09-18T03:38:43.376Z,1013.31
2017-09-18T03:39:52.219Z,1013.27
2017-09-18T03:41:01.060Z,1013.34
2017-09-18T03:42:09.900Z,1013.3
2017-09-18T03:43:18.741Z,1013.3
2017-09-18T03:44:27.732Z,1013.29
2017-09-18T03:45:36.571Z,1013.32
2017-09-18T03:46:45.748Z,1013.31
2017-09-18T03:47:54.589Z,1013.32
2017-09-18T03:49:03.429Z,1013.32
2017-09-18T03:50:12.270Z,1013.32
2017-09-18T03:51:21.444Z,1013.31
2017-09-18T03:52:30.284Z,1013.31
2017-09-18T03:53:39.122Z,1013.33
2017-09-18T03:54:47.965Z,1013.34
2017-09-18T03:55:56.905Z,1013.33
2017-09-18T03:57:05.747Z,1013.38
2017-09-18T03:58:14.592Z,1013.36
2017-09-18T03:59:23.431Z,1013.34
2017-09-18T04:00:32.275Z,1013.3
2017-09-18T04:01:41.269Z,1013.3
2017-09-18T04:02:50.109Z,1013.32
2017-09-18T04:03:58.949Z,1013.29
2017-09-18T04:05:07.790Z,1013.33
2017-09-18T04:06:16.629Z,1013.35
2017-09-18T04:07:25.571Z,1013.37
2017-09-18T04:08:34.745Z,1013.36
2017-09-18T04:09:43.585Z,1013.34
2017-09-18T04:10:52.427Z,1013.31
2017-09-18T04:12:01.272Z,1013.27
2017-09-18T04:13:10.263Z,1013.28
2017-09-18T04:14:19.106Z,1013.24
2017-09-18T04:15:27.947Z,1013.26
2017-09-18T04:16:36.790Z,1013.19
2017-09-18T04:17:45.630Z,1013.18
2017-09-18T04:18:54.774Z,1013.16
2017-09-18T04:20:03.611Z,1013.18
2017-09-18T04:21:12.455Z,1013.25
2017-09-18T04:22:21.297Z,1013.24
2017-09-18T04:23:30.138Z,1013.22
2017-09-18T04:24:38.979Z,1013.32
2017-09-18T04:25:47.822Z,1013.33
2017-09-18T04:26:56.665Z,1013.32
2017-09-18T04:28:05.507Z,1013.32
2017-09-18T04:29:14.349Z,1013.34
2017-09-18T04:30:23.524Z,1013.34
2017-09-18T04:31:32.366Z,1013.4
2017-09-18T04:32:41.206Z,1013.41
2017-09-18T04:33:50.046Z,1013.4
2017-09-18T04:34:59.221Z,1013.42
2017-09-18T04:36:08.064Z,1013.42
2017-09-18T04:37:16.907Z,1013.4
2017-09-18T04:38:25.748Z,1013.38
2017-09-18T04:39:34.592Z,1013.39
2017-09-18T04:40:43.435Z,1013.42
2017-09-18T04:41:52.476Z,1013.42
2017-09-18T04:43:01.318Z,1013.39
2017-09-18T04:44:10.162Z,1013.38
2017-09-18T04:45:19.004Z,1013.37
2017-09-18T04:46:27.845Z,1013.37
2017-09-18T04:47:36.735Z,1013.33
2017-09-18T04:48:45.574Z,1013.38
2017-09-18T04:49:54.417Z,1013.38
2017-09-18T04:51:03.265Z,1013.37
2017-09-18T04:52:12.108Z,1013.39
2017-09-18T04:53:21.053Z,1013.43
2017-09-18T04:54:29.895Z,1013.41
2017-09-18T04:55:38.737Z,1013.43
2017-09-18T04:56:47.577Z,1013.43
2017-09-18T04:57:56.417Z,1013.43
2017-09-18T04:59:05.310Z,1013.45
2017-09-18T05:00:14.152Z,1013.43
2017-09-18T05:01:22.993Z,1013.45
2017-09-18T05:02:31.832Z,1013.46
2017-09-18T05:03:40.675Z,1013.46
2017-09-18T05:04:49.515Z,1013.46
2017-09-18T05:05:58.355Z,1013.49
2017-09-18T05:07:07.194Z,1013.55
2017-09-18T05:08:16.030Z,1013.48
2017-09-18T05:09:24.871Z,1013.53
2017-09-18T05:10:33.810Z,1013.48
2017-09-18T05:11:42.652Z,1013.51
2017-09-18T05:12:51.495Z,1013.56
2017-09-18T05:14:00.665Z,1013.55
2017-09-18T05:15:09.506Z,1013.51
2017-09-18T05:16:18.398Z,1013.57
2017-09-18T05:17:27.240Z,1013.57
2017-09-18T05:18:36.081Z,1013.54
2017-09-18T05:19:44.924Z,1013.55
2017-09-18T05:20:53.766Z,1013.53
2017-09-18T05:22:02.708Z,1013.57
2017-09-18T05:23:11.550Z,1013.59
2017-09-18T05:24:20.391Z,1013.58
2017-09-18T05:25:29.232Z,1013.56
2017-09-18T05:26:38.074Z,1013.59
2017-09-18T05:27:47.013Z,1013.58
2017-09-18T05:28:55.855Z,1013.56
2017-09-18T05:30:04.695Z,1013.59
2017-09-18T05:31:13.538Z,1013.57
2017-09-18T05:32:22.400Z,1013.61
2017-09-18T05:33:31.733Z,1013.62
2017-09-18T05:34:40.674Z,1013.6
2017-09-18T05:35:49.566Z,1013.61
2017-09-18T05:36:58.487Z,1013.61
2017-09-18T05:38:07.411Z,1013.68
2017-09-18T05:39:16.266Z,1013.63
2017-09-18T05:40:25.224Z,1013.63
2017-09-18T05:41:34.113Z,1013.68
2017-09-18T05:42:43.024Z,1013.69
2017-09-18T05:43:51.905Z,1013.7
2017-09-18T05:45:00.880Z,1013.71
2017-09-18T05:46:09.820Z,1013.73
2017-09-18T05:47:18.684Z,1013.72
2017-09-18T05:48:27.552Z,1013.76
2017-09-18T05:49:36.489Z,1013.75
2017-09-18T05:50:45.523Z,1013.78
2017-09-18T05:51:54.434Z,1013.8
2017-09-18T05:53:03.643Z,1013.83
2017-09-18T05:54:12.671Z,1013.82
2017-09-18T05:55:21.542Z,1013.77
2017-09-18T05:56:30.428Z,1013.82
2017-09-18T05:57:39.353Z,1013.83
2017-09-18T05:58:48.258Z,1013.83
2017-09-18T05:59:57.135Z,1013.84
2017-09-18T06:01:06.047Z,1013.85
2017-09-18T06:02:14.954Z,1013.87
2017-09-18T06:03:24.217Z,1013.86
2017-09-18T06:04:33.315Z,1013.84
2017-09-18T06:05:42.189Z,1013.82
2017-09-18T06:06:51.123Z,1013.85
2017-09-18T06:08:00.054Z,1013.85
2017-09-18T06:09:08.980Z,1013.84
2017-09-18T06:10:18.036Z,1013.86
2017-09-18T06:11:26.920Z,1013.83
2017-09-18T06:12:35.809Z,1013.83
2017-09-18T06:13:44.683Z,1013.82
2017-09-18T06:14:53.604Z,1013.84
2017-09-18T06:16:02.548Z,1013.87
2017-09-18T06:17:11.392Z,1013.9
2017-09-18T06:18:20.577Z,1013.88
2017-09-18T06:19:29.421Z,1013.85
2017-09-18T06:20:38.270Z,1013.79
2017-09-18T06:21:47.259Z,1013.89
2017-09-18T06:22:56.109Z,1013.88
2017-09-18T06:24:04.956Z,1013.94
2017-09-18T06:25:13.802Z,1013.88
2017-09-18T06:26:22.982Z,1013.88
2017-09-18T06:27:32.090Z,1013.91
2017-09-18T06:28:40.933Z,1013.9
2017-09-18T06:29:49.777Z,1013.9
2017-09-18T06:30:58.620Z,1013.89
2017-09-18T06:32:07.463Z,1013.91
2017-09-18T06:33:16.508Z,1013.93
2017-09-18T06:34:25.355Z,1013.93
2017-09-18T06:35:34.201Z,1013.89
2017-09-18T06:36:43.044Z,1013.91
2017-09-18T06:37:51.887Z,1013.86
2017-09-18T06:39:00.732Z,1013.97
2017-09-18T06:40:09.575Z,1013.97
2017-09-18T06:41:18.420Z,1013.93
2017-09-18T06:42:27.272Z,1013.93
2017-09-18T06:43:36.117Z,1013.92
2017-09-18T06:44:45.112Z,1013.92
2017-09-18T06:45:53.955Z,1013.89
2017-09-18T06:47:02.809Z,1013.91
2017-09-18T06:48:11.652Z,1013.9
2017-09-18T06:49:20.494Z,1013.87
2017-09-18T06:50:29.739Z,1013.91
2017-09-18T06:51:38.588Z,1013.88
2017-09-18T06:52:47.469Z,1013.92
2017-09-18T06:53:56.382Z,1013.87
2017-09-18T06:55:05.230Z,1013.89
2017-09-18T06:56:14.128Z,1013.91
2017-09-18T06:57:22.975Z,1013.93
2017-09-18T06:58:31.819Z,1013.9
2017-09-18T06:59:40.667Z,1013.88
2017-09-18T07:00:49.515Z,1013.88
2017-09-18T07:01:58.662Z,1013.88
2017-09-18T07:03:07.516Z,1013.93
2017-09-18T07:04:16.359Z,1013.91
2017-09-18T07:05:25.208Z,1013.97
2017-09-18T07:06:34.057Z,1013.97
2017-09-18T07:07:43.054Z,1013.92
2017-09-18T07:08:51.906Z,1013.96
2017-09-18T07:10:00.753Z,1013.96
2017-09-18T07:11:09.601Z,1013.98
2017-09-18T07:12:18.453Z,1013.98
2017-09-18T07:13:27.606Z,1013.96
2017-09-18T07:14:36.455Z,1014
2017-09-18T07:15:45.305Z,1014
2017-09-18T07:16:54.155Z,1014.02
2017-09-18T07:18:03.006Z,1014.05
2017-09-18T07:19:12.202Z,1013.96
2017-09-18T07:20:21.047Z,1014.02
2017-09-18T07:21:29.899Z,1014.01
2017-09-18T07:22:38.749Z,1014.04
2017-09-18T07:23:47.595Z,1014.07
2017-09-18T07:24:56.589Z,1014.07
2017-09-18T07:26:05.436Z,1014.07
2017-09-18T07:27:14.280Z,1014.09
2017-09-18T07:28:23.166Z,1014.13
2017-09-18T07:29:32.012Z,1014.15
2017-09-18T07:30:41.008Z,1014.19
2017-09-18T07:31:49.857Z,1014.15
2017-09-18T07:32:58.704Z,1014.18
2017-09-18T07:34:07.546Z,1014.21
2017-09-18T07:35:16.399Z,1014.2
2017-09-18T07:36:25.544Z,1014.21
2017-09-18T07:37:34.407Z,1014.15
2017-09-18T07:38:43.255Z,1014.17
2017-09-18T07:39:52.092Z,1014.18
2017-09-18T07:41:00.938Z,1014.16
2017-09-18T07:42:09.930Z,1014.1
2017-09-18T07:43:18.780Z,1014.13
2017-09-18T07:44:27.623Z,1014.16
2017-09-18T07:45:36.468Z,1014.16
2017-09-18T07:46:45.314Z,1014.19
2017-09-18T07:47:54.218Z,1014.17
2017-09-18T07:49:03.395Z,1014.15
2017-09-18T07:50:12.243Z,1014.2
2017-09-18T07:51:21.092Z,1014.21
2017-09-18T07:52:29.935Z,1014.2
2017-09-18T07:53:38.933Z,1014.18
2017-09-18T07:54:47.783Z,1014.18
2017-09-18T07:55:56.705Z,1014.14
2017-09-18T07:57:05.557Z,1014.13
2017-09-18T07:58:14.415Z,1014.15
2017-09-18T07:59:23.463Z,1014.19
2017-09-18T08:00:32.315Z,1014.2
2017-09-18T08:01:41.178Z,1014.23
2017-09-18T08:02:50.025Z,1014.24
2017-09-18T08:03:58.900Z,1014.22
2017-09-18T08:05:07.994Z,1014.2
2017-09-18T08:06:16.841Z,1014.19
2017-09-18T08:07:26.029Z,1014.2
2017-09-18T08:08:34.874Z,1014.16
2017-09-18T08:09:43.721Z,1014.22
2017-09-18T08:10:52.722Z,1014.25
2017-09-18T08:12:01.560Z,1014.22
2017-09-18T08:13:10.437Z,1014.23
2017-09-18T08:14:19.282Z,1014.29
2017-09-18T08:15:28.128Z,1014.27
2017-09-18T08:16:37.027Z,1014.33
2017-09-18T08:17:45.878Z,1014.3
2017-09-18T08:18:54.726Z,1014.36
2017-09-18T08:20:03.570Z,1014.33
2017-09-18T08:21:12.417Z,1014.33
2017-09-18T08:22:21.321Z,1014.36
2017-09-18T08:23:30.170Z,1014.4
2017-09-18T08:24:39.028Z,1014.35
2017-09-18T08:25:47.873Z,1014.37
2017-09-18T08:26:56.718Z,1014.37
2017-09-18T08:28:05.733Z,1014.35
2017-09-18T08:29:14.579Z,1014.34
2017-09-18T08:30:23.427Z,1014.36
2017-09-18T08:31:32.271Z,1014.39
2017-09-18T08:32:41.218Z,1014.37
2017-09-18T08:33:50.116Z,1014.38
2017-09-18T08:34:58.966Z,1014.37
2017-09-18T08:36:07.810Z,1014.38
2017-09-18T08:37:16.992Z,1014.43
2017-09-18T08:38:25.840Z,1014.4
2017-09-18T08:39:34.836Z,1014.37
2017-09-18T08:40:43.676Z,1014.42
2017-09-18T08:41:52.523Z,1014.4
2017-09-18T08:43:01.369Z,1014.37
2017-09-18T08:44:10.231Z,1014.39
2017-09-18T08:45:19.559Z,1014.39
2017-09-18T08:46:28.415Z,1014.38
2017-09-18T08:47:37.261Z,1014.39
2017-09-18T08:48:46.120Z,1014.4
2017-09-18T08:49:54.972Z,1014.39
2017-09-18T08:51:03.875Z,1014.39
2017-09-18T08:52:12.721Z,1014.36
2017-09-18T08:53:21.577Z,1014.36
2017-09-18T08:54:30.461Z,1014.34
2017-09-18T08:55:39.305Z,1014.35
2017-09-18T08:56:48.309Z,1014.37
2017-09-18T08:57:57.161Z,1014.38
2017-09-18T08:59:06.005Z,1014.35
2017-09-18T09:00:14.849Z,1014.36
2017-09-18T09:01:23.696Z,1014.29
2017-09-18T09:02:32.694Z,1014.36
2017-09-18T09:03:41.540Z,1014.37
2017-09-18T09:04:50.722Z,1014.38
2017-09-18T09:05:59.577Z,1014.41
2017-09-18T09:07:08.425Z,1014.37
2017-09-18T09:08:17.535Z,1014.36
2017-09-18T09:09:26.400Z,1014.35
2017-09-18T09:10:35.246Z,1014.4
2017-09-18T09:11:44.097Z,1014.33
2017-09-18T09:12:52.951Z,1014.38
2017-09-18T09:14:02.051Z,1014.37
2017-09-18T09:15:10.900Z,1014.33
2017-09-18T09:16:19.865Z,1014.37
2017-09-18T09:17:28.805Z,1014.35
2017-09-18T09:18:37.654Z,1014.34
2017-09-18T09:19:46.501Z,1014.39
2017-09-18T09:20:55.355Z,1014.37
2017-09-18T09:22:04.213Z,1014.37
2017-09-18T09:23:13.062Z,1014.38
2017-09-18T09:24:21.909Z,1014.38
2017-09-18T09:25:30.807Z,1014.35
2017-09-18T09:26:39.658Z,1014.37
2017-09-18T09:27:48.508Z,1014.38
2017-09-18T09:28:57.360Z,1014.41
2017-09-18T09:30:06.209Z,1014.37
2017-09-18T09:31:15.256Z,1014.37
2017-09-18T09:32:24.110Z,1014.37
2017-09-18T09:33:33.013Z,1014.41
2017-09-18T09:34:41.870Z,1014.37
2017-09-18T09:35:50.751Z,1014.43
2017-09-18T09:36:59.598Z,1014.44
2017-09-18T09:38:08.446Z,1014.41
2017-09-18T09:39:17.297Z,1014.44
2017-09-18T09:40:26.143Z,1014.43
2017-09-18T09:41:35.326Z,1014.42
2017-09-18T09:42:44.171Z,1014.42
2017-09-18T09:43:53.371Z,1014.46
2017-09-18T09:45:02.225Z,1014.42
2017-09-18T09:46:11.075Z,1014.43
2017-09-18T09:47:20.037Z,1014.42
2017-09-18T09:48:29.222Z,1014.4
2017-09-18T09:49:38.069Z,1014.41
2017-09-18T09:50:46.913Z,1014.41
2017-09-18T09:51:55.817Z,1014.37
2017-09-18T09:53:04.713Z,1014.35
2017-09-18T09:54:13.861Z,1014.35
2017-09-18T09:55:22.728Z,1014.4
2017-09-18T09:56:31.571Z,1014.37
2017-09-18T09:57:40.415Z,1014.37
2017-09-18T09:58:49.263Z,1014.38
2017-09-18T09:59:58.160Z,1014.37
2017-09-18T10:01:07.011Z,1014.38
2017-09-18T10:02:16.189Z,1014.35
2017-09-18T10:03:25.380Z,1014.38
2017-09-18T10:04:34.231Z,1014.41
2017-09-18T10:05:43.384Z,1014.4
2017-09-18T10:06:52.232Z,1014.42
2017-09-18T10:08:01.076Z,1014.45
2017-09-18T10:09:09.928Z,1014.41
2017-09-18T10:10:18.772Z,1014.43
2017-09-18T10:11:27.798Z,1014.43
2017-09-18T10:12:36.622Z,1014.43
2017-09-18T10:13:45.469Z,1014.46
2017-09-18T10:14:54.315Z,1014.41
2017-09-18T10:16:03.159Z,1014.42
2017-09-18T10:17:12.412Z,1014.41
2017-09-18T10:18:21.257Z,1014.41
2017-09-18T10:19:30.104Z,1014.45
2017-09-18T10:20:38.953Z,1014.46
2017-09-18T10:21:47.802Z,1014.45
2017-09-18T10:22:56.704Z,1014.5
2017-09-18T10:24:05.554Z,1014.51
2017-09-18T10:25:14.403Z,1014.55
2017-09-18T10:26:23.250Z,1014.55
2017-09-18T10:27:32.428Z,1014.51
2017-09-18T10:28:41.422Z,1014.54
2017-09-18T10:29:50.267Z,1014.56
2017-09-18T10:30:59.113Z,1014.56
2017-09-18T10:32:07.958Z,1014.58
2017-09-18T10:33:16.803Z,1014.63
2017-09-18T10:34:25.751Z,1014.62
2017-09-18T10:35:34.602Z,1014.63
2017-09-18T10:36:43.451Z,1014.64
2017-09-18T10:37:52.304Z,1014.63
2017-09-18T10:39:01.157Z,1014.64
2017-09-18T10:40:10.260Z,1014.63
2017-09-18T10:41:19.107Z,1014.62
2017-09-18T10:42:27.955Z,1014.63
2017-09-18T10:43:36.803Z,1014.64
2017-09-18T10:44:45.655Z,1014.68
2017-09-18T10:45:54.650Z,1014.67
2017-09-18T10:47:03.836Z,1014.73
2017-09-18T10:48:12.688Z,1014.73
2017-09-18T10:49:21.555Z,1014.77
2017-09-18T10:50:30.404Z,1014.74
2017-09-18T10:51:39.402Z,1014.78
2017-09-18T10:52:48.251Z,1014.78
2017-09-18T10:53:57.433Z,1014.73
2017-09-18T10:55:06.294Z,1014.72
2017-09-18T10:56:15.142Z,1014.73
2017-09-18T10:57:24.140Z,1014.7
2017-09-18T10:58:32.987Z,1014.67
2017-09-18T10:59:41.837Z,1014.7
2017-09-18T11:00:50.711Z,1014.65
2017-09-18T11:01:59.892Z,1014.68
2017-09-18T11:03:09.221Z,1014.68
2017-09-18T11:04:18.071Z,1014.69
2017-09-18T11:05:26.921Z,1014.68
2017-09-18T11:06:35.771Z,1014.67
2017-09-18T11:07:44.643Z,1014.65
2017-09-18T11:08:53.616Z,1014.62
2017-09-18T11:10:02.464Z,1014.66
2017-09-18T11:11:11.313Z,1014.66
2017-09-18T11:12:20.161Z,1014.57
2017-09-18T11:13:29.008Z,1014.59
2017-09-18T11:14:38.287Z,1014.64
2017-09-18T11:15:47.134Z,1014.61
2017-09-18T11:16:55.981Z,1014.61
2017-09-18T11:18:04.831Z,1014.59
2017-09-18T11:19:13.677Z,1014.63
2017-09-18T11:20:22.674Z,1014.63
2017-09-18T11:21:31.523Z,1014.62
2017-09-18T11:22:40.371Z,1014.63
2017-09-18T11:23:49.217Z,1014.61
2017-09-18T11:24:58.061Z,1014.62
2017-09-18T11:26:07.061Z,1014.63
2017-09-18T11:27:15.916Z,1014.59
2017-09-18T11:28:24.766Z,1014.61
2017-09-18T11:29:33.620Z,1014.71
2017-09-18T11:30:42.464Z,1014.69
2017-09-18T11:31:51.364Z,1014.66
2017-09-18T11:33:00.210Z,1014.61
2017-09-18T11:34:09.055Z,1014.62
2017-09-18T11:35:17.911Z,1014.66
2017-09-18T11:36:26.756Z,1014.67
2017-09-18T11:37:35.752Z,1014.66
2017-09-18T11:38:44.598Z,1014.63
2017-09-18T11:39:53.446Z,1014.62
2017-09-18T11:41:02.294Z,1014.61
2017-09-18T11:42:11.145Z,1014.59
2017-09-18T11:43:20.378Z,1014.62
2017-09-18T11:44:29.232Z,1014.66
2017-09-18T11:45:38.082Z,1014.62
2017-09-18T11:46:46.930Z,1014.63
2017-09-18T11:47:55.779Z,1014.58
2017-09-18T11:49:04.828Z,1014.6
2017-09-18T11:50:13.673Z,1014.68
2017-09-18T11:51:22.520Z,1014.62
2017-09-18T11:52:31.368Z,1014.65
2017-09-18T11:53:40.214Z,1014.63
2017-09-18T11:54:49.312Z,1014.63
2017-09-18T11:55:58.159Z,1014.73
2017-09-18T11:57:07.014Z,1014.72
2017-09-18T11:58:15.863Z,1014.75
2017-09-18T11:59:24.725Z,1014.73
2017-09-18T12:00:33.732Z,1014.7
2017-09-18T12:01:42.601Z,1014.72
2017-09-18T12:02:51.449Z,1014.71
2017-09-18T12:04:00.305Z,1014.68
2017-09-18T12:05:09.156Z,1014.65
2017-09-18T12:06:18.486Z,1014.74
2017-09-18T12:07:27.400Z,1014.72
2017-09-18T12:08:36.253Z,1014.69
2017-09-18T12:09:45.107Z,1014.68
2017-09-18T12:10:53.958Z,1014.69
2017-09-18T12:12:02.871Z,1014.72
2017-09-18T12:13:12.050Z,1014.69
2017-09-18T12:14:20.906Z,1014.69
2017-09-18T12:15:29.759Z,1014.69
2017-09-18T12:16:38.625Z,1014.69
2017-09-18T12:17:47.539Z,1014.72
2017-09-18T12:18:56.396Z,1014.66
2017-09-18T12:20:05.251Z,1014.64
2017-09-18T12:21:14.145Z,1014.7
2017-09-18T12:22:23.010Z,1014.64
2017-09-18T12:23:31.907Z,1014.66
2017-09-18T12:24:40.759Z,1014.69
2017-09-18T12:25:49.614Z,1014.67
2017-09-18T12:26:58.482Z,1014.65
2017-09-18T12:28:07.617Z,1014.62
2017-09-18T12:29:17.560Z,1014.67
2017-09-18T12:30:26.518Z,1014.64
2017-09-18T12:31:35.437Z,1014.66
2017-09-18T12:32:44.338Z,1014.66
2017-09-18T12:33:53.188Z,1014.69
2017-09-18T12:35:02.189Z,1014.65
2017-09-18T12:36:11.035Z,1014.65
2017-09-18T12:37:19.901Z,1014.61
2017-09-18T12:38:28.752Z,1014.62
2017-09-18T12:39:37.603Z,1014.6
2017-09-18T12:40:46.501Z,1014.56
2017-09-18T12:41:55.348Z,1014.57
2017-09-18T12:43:04.199Z,1014.56
2017-09-18T12:44:13.051Z,1014.62
2017-09-18T12:45:22.282Z,1014.67
2017-09-18T12:46:31.130Z,1014.67
2017-09-18T12:47:39.981Z,1014.64
2017-09-18T12:48:48.837Z,1014.65
2017-09-18T12:49:57.685Z,1014.59
2017-09-18T12:51:06.533Z,1014.62
2017-09-18T12:52:15.684Z,1014.63
2017-09-18T12:53:24.548Z,1014.64
2017-09-18T12:54:33.401Z,1014.66
2017-09-18T12:55:42.249Z,1014.65
2017-09-18T12:56:51.099Z,1014.65
2017-09-18T12:58:00.050Z,1014.67
2017-09-18T12:59:08.897Z,1014.69
2017-09-18T13:00:17.749Z,1014.65
2017-09-18T13:01:26.597Z,1014.65
2017-09-18T13:02:35.446Z,1014.64
2017-09-18T13:03:44.295Z,1014.65
2017-09-18T13:04:53.146Z,1014.65
2017-09-18T13:06:02.347Z,1014.65
2017-09-18T13:07:11.199Z,1014.64
2017-09-18T13:08:20.049Z,1014.65
2017-09-18T13:09:28.998Z,1014.62
2017-09-18T13:10:37.850Z,1014.61
2017-09-18T13:11:46.696Z,1014.61
2017-09-18T13:12:55.545Z,1014.6
2017-09-18T13:14:04.393Z,1014.61
2017-09-18T13:15:13.392Z,1014.63
2017-09-18T13:16:22.242Z,1014.6
2017-09-18T13:17:31.758Z,1014.64
2017-09-18T13:18:40.606Z,1014.6
2017-09-18T13:19:49.465Z,1014.62
2017-09-18T13:20:59.125Z,1014.67
2017-09-18T13:22:07.979Z,1014.6
2017-09-18T13:23:16.821Z,1014.64
2017-09-18T13:24:25.675Z,1014.6
2017-09-18T13:25:34.527Z,1014.59
2017-09-18T13:26:43.538Z,1014.59
2017-09-18T13:27:52.389Z,1014.61
2017-09-18T13:29:01.236Z,1014.59
2017-09-18T13:30:10.097Z,1014.67
2017-09-18T13:31:18.947Z,1014.61
2017-09-18T13:32:27.805Z,1014.51
2017-09-18T13:33:36.676Z,1014.57
2017-09-18T13:34:45.643Z,1014.58
2017-09-18T13:35:54.491Z,1014.55
2017-09-18T13:37:03.339Z,1014.51
2017-09-18T13:38:12.457Z,1014.51
2017-09-18T13:39:21.506Z,1014.53
2017-09-18T13:40:30.544Z,1014.56
2017-09-18T13:41:39.675Z,1014.56
2017-09-18T13:42:48.584Z,1014.6
2017-09-18T13:43:57.631Z,1014.55
2017-09-18T13:45:06.861Z,1014.52
2017-09-18T13:46:15.944Z,1014.55
2017-09-18T13:47:24.982Z,1014.56
2017-09-18T13:48:33.993Z,1014.54
2017-09-18T13:49:43.021Z,1014.54
2017-09-18T13:50:51.957Z,1014.54
2017-09-18T13:52:01.214Z,1014.51
2017-09-18T13:53:10.451Z,1014.52
2017-09-18T13:54:19.367Z,1014.49
2017-09-18T13:55:28.910Z,1014.49